sensor_id;sensor_type;location;lat;lon;timestamp;temperature;humidity
43183;DHT22;28802;38.578;-0.066;2023-04-21T00:02:06;15.70;99.90
43183;DHT22;28802;38.578;-0.066;2023-04-21T00:04:32;15.70;99.90
43183;DHT22;28802;38.578;-0.066;2023-04-21T00:06:58;15.60;99.90
43183;DHT22;28802;38.578;-0.066;2023-04-21T00:09:27;15.60;99.90
43183;DHT22;28802;38.578;-0.066;2023-04-21T00:11:53;15.60;99.90
43183;DHT22;28802;38.578;-0.066;2023-04-21T00:14:19;15.60;99.90
43183;DHT22;28802;38.578;-0.066;2023-04-21T00:16:45;15.60;99.90
43183;DHT22;28802;38.578;-0.066;2023-04-21T00:19:11;15.50;99.90
43183;DHT22;28802;38.578;-0.066;2023-04-21T00:21:38;15.50;99.90
43183;DHT22;28802;38.578;-0.066;2023-04-21T00:24:05;15.40;99.90
43183;DHT22;28802;38.578;-0.066;2023-04-21T00:26:31;15.40;99.90
43183;DHT22;28802;38.578;-0.066;2023-04-21T00:28:57;15.40;99.90
43183;DHT22;28802;38.578;-0.066;2023-04-21T00:31:23;15.40;99.90
43183;DHT22;28802;38.578;-0.066;2023-04-21T00:33:49;15.30;99.90
43183;DHT22;28802;38.578;-0.066;2023-04-21T00:36:14;15.40;99.90
43183;DHT22;28802;38.578;-0.066;2023-04-21T00:38:41;15.30;99.90
43183;DHT22;28802;38.578;-0.066;2023-04-21T00:41:07;15.30;99.90
43183;DHT22;28802;38.578;-0.066;2023-04-21T00:43:36;15.20;99.90
43183;DHT22;28802;38.578;-0.066;2023-04-21T00:46:02;15.20;99.90
43183;DHT22;28802;38.578;-0.066;2023-04-21T00:48:28;15.20;99.90
43183;DHT22;28802;38.578;-0.066;2023-04-21T00:50:54;15.00;99.90
43183;DHT22;28802;38.578;-0.066;2023-04-21T00:53:20;15.00;99.90
43183;DHT22;28802;38.578;-0.066;2023-04-21T00:55:47;15.00;99.90
43183;DHT22;28802;38.578;-0.066;2023-04-21T00:58:13;15.10;99.90
43183;DHT22;28802;38.578;-0.066;2023-04-21T01:00:38;15.00;99.90
43183;DHT22;28802;38.578;-0.066;2023-04-21T01:03:05;15.00;99.90
43183;DHT22;28802;38.578;-0.066;2023-04-21T01:05:32;15.00;99.90
43183;DHT22;28802;38.578;-0.066;2023-04-21T01:07:59;15.00;99.90
43183;DHT22;28802;38.578;-0.066;2023-04-21T01:10:25;14.90;99.90
43183;DHT22;28802;38.578;-0.066;2023-04-21T01:12:51;14.90;99.90
43183;DHT22;28802;38.578;-0.066;2023-04-21T01:15:17;15.00;99.90
43183;DHT22;28802;38.578;-0.066;2023-04-21T01:17:43;14.80;99.90
43183;DHT22;28802;38.578;-0.066;2023-04-21T01:20:13;14.70;99.90
43183;DHT22;28802;38.578;-0.066;2023-04-21T01:22:40;14.70;99.90
43183;DHT22;28802;38.578;-0.066;2023-04-21T01:25:07;14.70;99.90
43183;DHT22;28802;38.578;-0.066;2023-04-21T01:27:35;14.70;99.90
43183;DHT22;28802;38.578;-0.066;2023-04-21T01:30:01;14.80;99.90
43183;DHT22;28802;38.578;-0.066;2023-04-21T01:32:29;14.70;99.90
43183;DHT22;28802;38.578;-0.066;2023-04-21T01:34:57;14.70;99.90
43183;DHT22;28802;38.578;-0.066;2023-04-21T01:37:29;14.70;99.90
43183;DHT22;28802;38.578;-0.066;2023-04-21T01:39:58;14.70;99.90
43183;DHT22;28802;38.578;-0.066;2023-04-21T01:42:27;14.70;99.90
43183;DHT22;28802;38.578;-0.066;2023-04-21T01:44:53;14.60;99.90
43183;DHT22;28802;38.578;-0.066;2023-04-21T01:47:19;14.60;99.90
43183;DHT22;28802;38.578;-0.066;2023-04-21T01:49:45;14.60;99.90
43183;DHT22;28802;38.578;-0.066;2023-04-21T01:52:11;14.60;99.90
43183;DHT22;28802;38.578;-0.066;2023-04-21T01:54:38;14.50;99.90
43183;DHT22;28802;38.578;-0.066;2023-04-21T01:57:04;14.50;99.90
43183;DHT22;28802;38.578;-0.066;2023-04-21T01:59:31;14.50;99.90
43183;DHT22;28802;38.578;-0.066;2023-04-21T02:01:57;14.50;99.90
43183;DHT22;28802;38.578;-0.066;2023-04-21T02:04:23;14.50;99.90
43183;DHT22;28802;38.578;-0.066;2023-04-21T02:06:49;14.60;99.90
43183;DHT22;28802;38.578;-0.066;2023-04-21T02:09:15;14.60;99.90
43183;DHT22;28802;38.578;-0.066;2023-04-21T02:11:41;14.60;99.90
43183;DHT22;28802;38.578;-0.066;2023-04-21T02:14:07;14.60;99.90
43183;DHT22;28802;38.578;-0.066;2023-04-21T02:16:33;14.60;99.90
43183;DHT22;28802;38.578;-0.066;2023-04-21T02:18:59;14.60;99.90
43183;DHT22;28802;38.578;-0.066;2023-04-21T02:21:26;14.50;99.90
43183;DHT22;28802;38.578;-0.066;2023-04-21T02:23:52;14.50;99.90
43183;DHT22;28802;38.578;-0.066;2023-04-21T02:26:19;14.50;99.90
43183;DHT22;28802;38.578;-0.066;2023-04-21T02:28:46;14.50;99.90
43183;DHT22;28802;38.578;-0.066;2023-04-21T02:31:15;14.50;99.90
43183;DHT22;28802;38.578;-0.066;2023-04-21T02:33:40;14.50;99.90
43183;DHT22;28802;38.578;-0.066;2023-04-21T02:36:06;14.50;99.90
43183;DHT22;28802;38.578;-0.066;2023-04-21T02:38:32;14.40;99.90
43183;DHT22;28802;38.578;-0.066;2023-04-21T02:40:58;14.40;99.90
43183;DHT22;28802;38.578;-0.066;2023-04-21T02:43:24;14.40;99.90
43183;DHT22;28802;38.578;-0.066;2023-04-21T02:45:51;14.30;99.90
43183;DHT22;28802;38.578;-0.066;2023-04-21T02:48:17;14.30;99.90
43183;DHT22;28802;38.578;-0.066;2023-04-21T02:50:51;14.30;99.90
43183;DHT22;28802;38.578;-0.066;2023-04-21T02:53:18;14.40;99.90
43183;DHT22;28802;38.578;-0.066;2023-04-21T02:55:44;14.40;99.90
43183;DHT22;28802;38.578;-0.066;2023-04-21T02:58:10;14.30;99.90
43183;DHT22;28802;38.578;-0.066;2023-04-21T03:00:36;14.20;99.90
43183;DHT22;28802;38.578;-0.066;2023-04-21T03:03:02;14.10;99.90
43183;DHT22;28802;38.578;-0.066;2023-04-21T03:05:28;14.10;99.90
43183;DHT22;28802;38.578;-0.066;2023-04-21T03:07:54;14.10;99.90
43183;DHT22;28802;38.578;-0.066;2023-04-21T03:10:20;14.20;99.90
43183;DHT22;28802;38.578;-0.066;2023-04-21T03:12:46;14.20;99.90
43183;DHT22;28802;38.578;-0.066;2023-04-21T03:15:12;14.20;99.90
43183;DHT22;28802;38.578;-0.066;2023-04-21T03:17:42;14.20;99.90
43183;DHT22;28802;38.578;-0.066;2023-04-21T03:20:10;14.20;99.90
43183;DHT22;28802;38.578;-0.066;2023-04-21T03:22:38;14.30;99.90
43183;DHT22;28802;38.578;-0.066;2023-04-21T03:25:04;14.20;99.90
43183;DHT22;28802;38.578;-0.066;2023-04-21T03:27:32;14.20;99.90
43183;DHT22;28802;38.578;-0.066;2023-04-21T03:29:58;14.20;99.90
43183;DHT22;28802;38.578;-0.066;2023-04-21T03:32:24;14.20;99.90
43183;DHT22;28802;38.578;-0.066;2023-04-21T03:34:50;14.20;99.90
43183;DHT22;28802;38.578;-0.066;2023-04-21T03:37:18;14.20;99.90
43183;DHT22;28802;38.578;-0.066;2023-04-21T03:39:44;14.10;99.90
43183;DHT22;28802;38.578;-0.066;2023-04-21T03:42:10;14.00;99.90
43183;DHT22;28802;38.578;-0.066;2023-04-21T03:44:36;14.00;99.90
43183;DHT22;28802;38.578;-0.066;2023-04-21T03:47:02;14.10;99.90
43183;DHT22;28802;38.578;-0.066;2023-04-21T03:49:29;14.20;99.90
43183;DHT22;28802;38.578;-0.066;2023-04-21T03:51:55;14.20;99.90
43183;DHT22;28802;38.578;-0.066;2023-04-21T03:54:21;14.10;99.90
43183;DHT22;28802;38.578;-0.066;2023-04-21T03:56:47;14.10;99.90
43183;DHT22;28802;38.578;-0.066;2023-04-21T03:59:12;14.20;99.90
43183;DHT22;28802;38.578;-0.066;2023-04-21T04:01:38;14.00;99.90
43183;DHT22;28802;38.578;-0.066;2023-04-21T04:04:04;14.00;99.90
43183;DHT22;28802;38.578;-0.066;2023-04-21T04:06:30;13.90;99.90
43183;DHT22;28802;38.578;-0.066;2023-04-21T04:08:57;14.00;99.90
43183;DHT22;28802;38.578;-0.066;2023-04-21T04:11:23;14.00;99.90
43183;DHT22;28802;38.578;-0.066;2023-04-21T04:13:49;14.00;99.90
43183;DHT22;28802;38.578;-0.066;2023-04-21T04:16:14;14.00;99.90
43183;DHT22;28802;38.578;-0.066;2023-04-21T04:18:40;13.90;99.90
43183;DHT22;28802;38.578;-0.066;2023-04-21T04:21:07;14.00;99.90
43183;DHT22;28802;38.578;-0.066;2023-04-21T04:23:33;13.90;99.90
43183;DHT22;28802;38.578;-0.066;2023-04-21T04:25:59;13.90;99.90
43183;DHT22;28802;38.578;-0.066;2023-04-21T04:28:26;13.90;99.90
43183;DHT22;28802;38.578;-0.066;2023-04-21T04:30:52;13.90;99.90
43183;DHT22;28802;38.578;-0.066;2023-04-21T04:33:19;13.90;99.90
43183;DHT22;28802;38.578;-0.066;2023-04-21T04:35:45;13.90;99.90
43183;DHT22;28802;38.578;-0.066;2023-04-21T04:38:12;13.90;99.90
43183;DHT22;28802;38.578;-0.066;2023-04-21T04:40:40;13.90;99.90
43183;DHT22;28802;38.578;-0.066;2023-04-21T04:43:07;13.90;99.90
43183;DHT22;28802;38.578;-0.066;2023-04-21T04:45:35;13.90;99.90
43183;DHT22;28802;38.578;-0.066;2023-04-21T04:48:02;13.90;99.90
43183;DHT22;28802;38.578;-0.066;2023-04-21T04:50:29;13.80;99.90
43183;DHT22;28802;38.578;-0.066;2023-04-21T04:52:54;13.80;99.90
43183;DHT22;28802;38.578;-0.066;2023-04-21T04:55:22;13.80;99.90
43183;DHT22;28802;38.578;-0.066;2023-04-21T04:57:48;13.80;99.90
43183;DHT22;28802;38.578;-0.066;2023-04-21T05:00:14;13.80;99.90
43183;DHT22;28802;38.578;-0.066;2023-04-21T05:02:40;13.80;99.90
43183;DHT22;28802;38.578;-0.066;2023-04-21T05:05:06;13.80;99.90
43183;DHT22;28802;38.578;-0.066;2023-04-21T05:07:35;13.80;99.90
43183;DHT22;28802;38.578;-0.066;2023-04-21T05:10:01;13.80;99.90
43183;DHT22;28802;38.578;-0.066;2023-04-21T05:12:29;13.50;99.90
43183;DHT22;28802;38.578;-0.066;2023-04-21T05:14:57;13.50;99.90
43183;DHT22;28802;38.578;-0.066;2023-04-21T05:17:23;13.60;99.90
43183;DHT22;28802;38.578;-0.066;2023-04-21T05:19:48;13.50;99.90
43183;DHT22;28802;38.578;-0.066;2023-04-21T05:22:14;13.40;99.90
43183;DHT22;28802;38.578;-0.066;2023-04-21T05:24:41;13.30;99.90
43183;DHT22;28802;38.578;-0.066;2023-04-21T05:27:07;13.30;99.90
43183;DHT22;28802;38.578;-0.066;2023-04-21T05:29:33;13.40;99.90
43183;DHT22;28802;38.578;-0.066;2023-04-21T05:31:59;13.50;99.90
43183;DHT22;28802;38.578;-0.066;2023-04-21T05:34:26;13.60;99.90
43183;DHT22;28802;38.578;-0.066;2023-04-21T05:36:51;13.90;99.90
43183;DHT22;28802;38.578;-0.066;2023-04-21T05:39:17;14.30;99.90
43183;DHT22;28802;38.578;-0.066;2023-04-21T05:41:43;14.70;99.90
43183;DHT22;28802;38.578;-0.066;2023-04-21T05:44:09;15.10;99.90
43183;DHT22;28802;38.578;-0.066;2023-04-21T05:46:35;15.50;99.90
43183;DHT22;28802;38.578;-0.066;2023-04-21T05:49:01;15.80;99.90
43183;DHT22;28802;38.578;-0.066;2023-04-21T05:51:27;16.40;99.90
43183;DHT22;28802;38.578;-0.066;2023-04-21T05:53:53;16.90;99.90
43183;DHT22;28802;38.578;-0.066;2023-04-21T05:56:19;17.40;99.90
43183;DHT22;28802;38.578;-0.066;2023-04-21T05:58:45;17.80;99.90
43183;DHT22;28802;38.578;-0.066;2023-04-21T06:01:11;18.30;99.90
43183;DHT22;28802;38.578;-0.066;2023-04-21T06:03:37;18.80;99.90
43183;DHT22;28802;38.578;-0.066;2023-04-21T06:06:04;19.50;99.90
43183;DHT22;28802;38.578;-0.066;2023-04-21T06:08:31;20.10;99.90
43183;DHT22;28802;38.578;-0.066;2023-04-21T06:10:57;20.70;99.90
43183;DHT22;28802;38.578;-0.066;2023-04-21T06:13:22;21.30;99.90
43183;DHT22;28802;38.578;-0.066;2023-04-21T06:15:48;21.90;99.90
43183;DHT22;28802;38.578;-0.066;2023-04-21T06:18:14;22.50;99.90
43183;DHT22;28802;38.578;-0.066;2023-04-21T06:20:41;23.00;99.90
43183;DHT22;28802;38.578;-0.066;2023-04-21T06:23:07;23.60;99.90
43183;DHT22;28802;38.578;-0.066;2023-04-21T06:25:34;24.00;99.90
43183;DHT22;28802;38.578;-0.066;2023-04-21T06:28:00;24.30;99.90
43183;DHT22;28802;38.578;-0.066;2023-04-21T06:30:26;24.70;99.90
43183;DHT22;28802;38.578;-0.066;2023-04-21T06:32:52;25.10;99.90
43183;DHT22;28802;38.578;-0.066;2023-04-21T06:35:18;25.50;99.90
43183;DHT22;28802;38.578;-0.066;2023-04-21T06:37:45;26.00;99.90
43183;DHT22;28802;38.578;-0.066;2023-04-21T06:40:11;26.30;99.90
43183;DHT22;28802;38.578;-0.066;2023-04-21T06:42:40;26.60;99.90
43183;DHT22;28802;38.578;-0.066;2023-04-21T06:45:07;26.80;99.90
43183;DHT22;28802;38.578;-0.066;2023-04-21T06:47:34;27.10;99.90
43183;DHT22;28802;38.578;-0.066;2023-04-21T06:50:00;27.30;99.90
43183;DHT22;28802;38.578;-0.066;2023-04-21T06:52:26;27.30;99.90
43183;DHT22;28802;38.578;-0.066;2023-04-21T06:54:55;27.40;99.90
43183;DHT22;28802;38.578;-0.066;2023-04-21T06:57:20;27.10;99.90
43183;DHT22;28802;38.578;-0.066;2023-04-21T06:59:46;27.20;99.90
43183;DHT22;28802;38.578;-0.066;2023-04-21T07:02:12;26.60;99.90
43183;DHT22;28802;38.578;-0.066;2023-04-21T07:04:38;26.10;99.90
43183;DHT22;28802;38.578;-0.066;2023-04-21T07:07:04;25.90;99.90
43183;DHT22;28802;38.578;-0.066;2023-04-21T07:09:31;25.80;99.90
43183;DHT22;28802;38.578;-0.066;2023-04-21T07:11:59;26.30;99.90
43183;DHT22;28802;38.578;-0.066;2023-04-21T07:14:25;26.30;99.90
43183;DHT22;28802;38.578;-0.066;2023-04-21T07:16:51;26.60;99.90
43183;DHT22;28802;38.578;-0.066;2023-04-21T07:19:17;26.40;99.90
43183;DHT22;28802;38.578;-0.066;2023-04-21T07:21:43;26.50;99.90
43183;DHT22;28802;38.578;-0.066;2023-04-21T07:24:10;26.80;99.90
43183;DHT22;28802;38.578;-0.066;2023-04-21T07:26:36;27.20;99.90
43183;DHT22;28802;38.578;-0.066;2023-04-21T07:29:02;27.10;99.90
43183;DHT22;28802;38.578;-0.066;2023-04-21T07:31:28;27.30;99.90
43183;DHT22;28802;38.578;-0.066;2023-04-21T07:33:54;25.50;99.90
43183;DHT22;28802;38.578;-0.066;2023-04-21T07:36:20;25.70;99.90
43183;DHT22;28802;38.578;-0.066;2023-04-21T07:38:46;26.60;99.90
43183;DHT22;28802;38.578;-0.066;2023-04-21T07:41:12;25.80;99.90
43183;DHT22;28802;38.578;-0.066;2023-04-21T07:43:39;25.70;99.90
43183;DHT22;28802;38.578;-0.066;2023-04-21T07:46:05;26.40;99.90
43183;DHT22;28802;38.578;-0.066;2023-04-21T07:48:31;26.30;99.90
43183;DHT22;28802;38.578;-0.066;2023-04-21T07:50:58;25.90;99.90
43183;DHT22;28802;38.578;-0.066;2023-04-21T07:53:27;26.50;99.90
43183;DHT22;28802;38.578;-0.066;2023-04-21T07:55:57;26.80;99.90
43183;DHT22;28802;38.578;-0.066;2023-04-21T07:58:23;27.50;99.90
43183;DHT22;28802;38.578;-0.066;2023-04-21T08:00:49;27.50;99.90
43183;DHT22;28802;38.578;-0.066;2023-04-21T08:03:18;27.00;99.90
43183;DHT22;28802;38.578;-0.066;2023-04-21T08:05:46;26.10;99.90
43183;DHT22;28802;38.578;-0.066;2023-04-21T08:08:12;26.50;99.90
43183;DHT22;28802;38.578;-0.066;2023-04-21T08:10:38;27.30;99.90
43183;DHT22;28802;38.578;-0.066;2023-04-21T08:13:07;27.70;99.90
43183;DHT22;28802;38.578;-0.066;2023-04-21T08:15:34;27.70;99.90
43183;DHT22;28802;38.578;-0.066;2023-04-21T08:18:00;27.80;99.90
43183;DHT22;28802;38.578;-0.066;2023-04-21T08:20:30;28.10;99.90
43183;DHT22;28802;38.578;-0.066;2023-04-21T08:22:56;28.30;99.90
43183;DHT22;28802;38.578;-0.066;2023-04-21T08:25:31;28.70;99.90
43183;DHT22;28802;38.578;-0.066;2023-04-21T08:27:57;28.00;99.90
43183;DHT22;28802;38.578;-0.066;2023-04-21T08:30:27;27.80;99.90
43183;DHT22;28802;38.578;-0.066;2023-04-21T08:32:53;27.80;99.90
43183;DHT22;28802;38.578;-0.066;2023-04-21T08:35:22;28.50;99.90
43183;DHT22;28802;38.578;-0.066;2023-04-21T08:37:48;27.90;99.90
43183;DHT22;28802;38.578;-0.066;2023-04-21T08:40:15;27.40;99.90
43183;DHT22;28802;38.578;-0.066;2023-04-21T08:42:41;27.40;99.90
43183;DHT22;28802;38.578;-0.066;2023-04-21T08:45:10;27.20;99.90
43183;DHT22;28802;38.578;-0.066;2023-04-21T08:47:40;26.80;99.90
43183;DHT22;28802;38.578;-0.066;2023-04-21T08:50:13;27.00;99.90
43183;DHT22;28802;38.578;-0.066;2023-04-21T08:52:40;27.50;99.90
43183;DHT22;28802;38.578;-0.066;2023-04-21T08:55:07;27.20;99.90
43183;DHT22;28802;38.578;-0.066;2023-04-21T08:57:34;27.10;99.90
43183;DHT22;28802;38.578;-0.066;2023-04-21T09:00:00;27.90;99.90
43183;DHT22;28802;38.578;-0.066;2023-04-21T09:02:27;27.90;99.90
43183;DHT22;28802;38.578;-0.066;2023-04-21T09:04:53;28.10;99.90
43183;DHT22;28802;38.578;-0.066;2023-04-21T09:07:36;26.90;99.90
43183;DHT22;28802;38.578;-0.066;2023-04-21T09:10:04;27.50;99.90
43183;DHT22;28802;38.578;-0.066;2023-04-21T09:12:31;28.10;99.90
43183;DHT22;28802;38.578;-0.066;2023-04-21T09:14:57;28.50;99.90
43183;DHT22;28802;38.578;-0.066;2023-04-21T09:17:30;29.40;99.90
43183;DHT22;28802;38.578;-0.066;2023-04-21T09:20:16;29.50;99.90
43183;DHT22;28802;38.578;-0.066;2023-04-21T09:22:43;28.60;99.90
43183;DHT22;28802;38.578;-0.066;2023-04-21T09:25:09;28.70;99.90
43183;DHT22;28802;38.578;-0.066;2023-04-21T09:27:36;28.30;99.90
43183;DHT22;28802;38.578;-0.066;2023-04-21T09:30:06;29.00;99.90
43183;DHT22;28802;38.578;-0.066;2023-04-21T09:32:39;29.80;99.90
43183;DHT22;28802;38.578;-0.066;2023-04-21T09:35:10;30.10;99.90
43183;DHT22;28802;38.578;-0.066;2023-04-21T09:37:37;28.20;99.90
43183;DHT22;28802;38.578;-0.066;2023-04-21T09:40:03;27.80;99.90
43183;DHT22;28802;38.578;-0.066;2023-04-21T09:42:32;28.30;99.90
43183;DHT22;28802;38.578;-0.066;2023-04-21T09:44:59;29.00;99.90
43183;DHT22;28802;38.578;-0.066;2023-04-21T09:47:28;29.30;99.90
43183;DHT22;28802;38.578;-0.066;2023-04-21T09:49:55;28.80;99.90
43183;DHT22;28802;38.578;-0.066;2023-04-21T09:52:23;28.10;99.90
43183;DHT22;28802;38.578;-0.066;2023-04-21T09:54:56;27.70;99.90
43183;DHT22;28802;38.578;-0.066;2023-04-21T09:57:26;28.00;99.90
43183;DHT22;28802;38.578;-0.066;2023-04-21T10:00:07;27.90;99.90
43183;DHT22;28802;38.578;-0.066;2023-04-21T10:02:37;28.20;99.90
43183;DHT22;28802;38.578;-0.066;2023-04-21T10:05:06;28.00;99.90
43183;DHT22;28802;38.578;-0.066;2023-04-21T10:07:32;28.10;99.90
43183;DHT22;28802;38.578;-0.066;2023-04-21T10:09:58;28.40;99.90
43183;DHT22;28802;38.578;-0.066;2023-04-21T10:12:26;28.50;99.90
43183;DHT22;28802;38.578;-0.066;2023-04-21T10:14:56;29.00;99.90
43183;DHT22;28802;38.578;-0.066;2023-04-21T10:17:23;28.10;99.90
43183;DHT22;28802;38.578;-0.066;2023-04-21T10:19:54;28.20;99.90
43183;DHT22;28802;38.578;-0.066;2023-04-21T10:22:28;27.70;99.90
43183;DHT22;28802;38.578;-0.066;2023-04-21T10:24:55;28.40;99.90
43183;DHT22;28802;38.578;-0.066;2023-04-21T10:27:42;27.90;99.90
43183;DHT22;28802;38.578;-0.066;2023-04-21T10:30:21;27.50;99.90
43183;DHT22;28802;38.578;-0.066;2023-04-21T10:33:06;27.90;99.90
43183;DHT22;28802;38.578;-0.066;2023-04-21T10:35:59;28.10;99.90
43183;DHT22;28802;38.578;-0.066;2023-04-21T10:38:42;27.80;99.90
43183;DHT22;28802;38.578;-0.066;2023-04-21T10:41:28;28.00;99.90
43183;DHT22;28802;38.578;-0.066;2023-04-21T10:46:37;27.00;99.90
43183;DHT22;28802;38.578;-0.066;2023-04-21T10:49:08;27.00;99.90
43183;DHT22;28802;38.578;-0.066;2023-04-21T10:54:22;27.40;99.90
43183;DHT22;28802;38.578;-0.066;2023-04-21T10:56:57;27.10;99.90
43183;DHT22;28802;38.578;-0.066;2023-04-21T10:59:25;26.40;99.90
43183;DHT22;28802;38.578;-0.066;2023-04-21T11:01:51;26.90;99.90
43183;DHT22;28802;38.578;-0.066;2023-04-21T11:04:21;26.80;99.90
43183;DHT22;28802;38.578;-0.066;2023-04-21T11:07:12;26.90;99.90
43183;DHT22;28802;38.578;-0.066;2023-04-21T11:09:40;27.10;99.90
43183;DHT22;28802;38.578;-0.066;2023-04-21T11:12:10;26.80;99.90
43183;DHT22;28802;38.578;-0.066;2023-04-21T11:14:37;27.30;99.90
43183;DHT22;28802;38.578;-0.066;2023-04-21T11:17:05;27.30;99.90
43183;DHT22;28802;38.578;-0.066;2023-04-21T11:19:36;26.70;99.90
43183;DHT22;28802;38.578;-0.066;2023-04-21T11:22:04;26.30;99.90
43183;DHT22;28802;38.578;-0.066;2023-04-21T11:24:33;26.00;99.90
43183;DHT22;28802;38.578;-0.066;2023-04-21T11:26:59;26.40;99.90
43183;DHT22;28802;38.578;-0.066;2023-04-21T11:29:28;27.20;99.90
43183;DHT22;28802;38.578;-0.066;2023-04-21T11:31:54;26.80;99.90
43183;DHT22;28802;38.578;-0.066;2023-04-21T11:34:21;26.20;99.90
43183;DHT22;28802;38.578;-0.066;2023-04-21T11:36:48;26.40;99.90
43183;DHT22;28802;38.578;-0.066;2023-04-21T11:39:15;26.80;99.90
43183;DHT22;28802;38.578;-0.066;2023-04-21T11:41:49;26.90;99.90
43183;DHT22;28802;38.578;-0.066;2023-04-21T11:44:41;26.90;99.90
43183;DHT22;28802;38.578;-0.066;2023-04-21T11:47:26;27.20;99.90
43183;DHT22;28802;38.578;-0.066;2023-04-21T11:49:53;27.50;99.90
43183;DHT22;28802;38.578;-0.066;2023-04-21T11:52:28;27.70;99.90
43183;DHT22;28802;38.578;-0.066;2023-04-21T11:54:58;27.10;99.90
43183;DHT22;28802;38.578;-0.066;2023-04-21T11:57:26;26.50;99.90
43183;DHT22;28802;38.578;-0.066;2023-04-21T11:59:52;26.70;99.90
43183;DHT22;28802;38.578;-0.066;2023-04-21T12:02:26;26.40;99.90
43183;DHT22;28802;38.578;-0.066;2023-04-21T12:05:04;26.70;99.90
43183;DHT22;28802;38.578;-0.066;2023-04-21T12:07:32;26.90;99.90
43183;DHT22;28802;38.578;-0.066;2023-04-21T12:10:00;26.70;99.90
43183;DHT22;28802;38.578;-0.066;2023-04-21T12:12:27;26.90;99.90
43183;DHT22;28802;38.578;-0.066;2023-04-21T12:14:53;26.80;99.90
43183;DHT22;28802;38.578;-0.066;2023-04-21T12:17:19;26.70;99.90
43183;DHT22;28802;38.578;-0.066;2023-04-21T12:19:46;26.90;99.90
43183;DHT22;28802;38.578;-0.066;2023-04-21T12:22:15;27.00;99.90
43183;DHT22;28802;38.578;-0.066;2023-04-21T12:24:43;26.50;99.90
43183;DHT22;28802;38.578;-0.066;2023-04-21T12:27:09;26.50;99.90
43183;DHT22;28802;38.578;-0.066;2023-04-21T12:29:35;26.30;99.90
43183;DHT22;28802;38.578;-0.066;2023-04-21T12:32:07;26.10;99.90
43183;DHT22;28802;38.578;-0.066;2023-04-21T12:34:33;26.20;99.90
43183;DHT22;28802;38.578;-0.066;2023-04-21T12:37:03;25.90;99.90
43183;DHT22;28802;38.578;-0.066;2023-04-21T12:39:29;25.80;99.90
43183;DHT22;28802;38.578;-0.066;2023-04-21T12:41:55;25.80;99.90
43183;DHT22;28802;38.578;-0.066;2023-04-21T12:44:22;25.80;99.90
43183;DHT22;28802;38.578;-0.066;2023-04-21T12:46:48;25.50;99.90
43183;DHT22;28802;38.578;-0.066;2023-04-21T12:49:14;25.20;99.90
43183;DHT22;28802;38.578;-0.066;2023-04-21T12:51:42;24.90;99.90
43183;DHT22;28802;38.578;-0.066;2023-04-21T12:54:10;24.80;99.90
43183;DHT22;28802;38.578;-0.066;2023-04-21T12:56:36;24.90;99.90
43183;DHT22;28802;38.578;-0.066;2023-04-21T12:59:05;25.00;99.90
43183;DHT22;28802;38.578;-0.066;2023-04-21T13:01:35;25.00;99.90
43183;DHT22;28802;38.578;-0.066;2023-04-21T13:04:02;24.80;99.90
43183;DHT22;28802;38.578;-0.066;2023-04-21T13:06:28;24.60;99.90
43183;DHT22;28802;38.578;-0.066;2023-04-21T13:08:55;24.60;99.90
43183;DHT22;28802;38.578;-0.066;2023-04-21T13:11:24;24.40;99.90
43183;DHT22;28802;38.578;-0.066;2023-04-21T13:13:50;24.30;99.90
43183;DHT22;28802;38.578;-0.066;2023-04-21T13:16:16;24.00;99.90
43183;DHT22;28802;38.578;-0.066;2023-04-21T13:18:44;23.80;99.90
43183;DHT22;28802;38.578;-0.066;2023-04-21T13:21:10;23.70;99.90
43183;DHT22;28802;38.578;-0.066;2023-04-21T13:23:37;23.80;99.90
43183;DHT22;28802;38.578;-0.066;2023-04-21T13:26:06;24.00;99.90
43183;DHT22;28802;38.578;-0.066;2023-04-21T13:28:33;24.00;99.90
43183;DHT22;28802;38.578;-0.066;2023-04-21T13:30:59;23.90;99.90
43183;DHT22;28802;38.578;-0.066;2023-04-21T13:33:26;24.00;99.90
43183;DHT22;28802;38.578;-0.066;2023-04-21T13:35:54;24.00;99.90
43183;DHT22;28802;38.578;-0.066;2023-04-21T13:38:20;23.90;99.90
43183;DHT22;28802;38.578;-0.066;2023-04-21T13:40:46;23.90;99.90
43183;DHT22;28802;38.578;-0.066;2023-04-21T13:43:13;23.50;99.90
43183;DHT22;28802;38.578;-0.066;2023-04-21T13:45:42;23.40;99.90
43183;DHT22;28802;38.578;-0.066;2023-04-21T13:48:08;23.30;99.90
43183;DHT22;28802;38.578;-0.066;2023-04-21T13:50:34;23.10;99.90
43183;DHT22;28802;38.578;-0.066;2023-04-21T13:53:01;23.10;99.90
43183;DHT22;28802;38.578;-0.066;2023-04-21T13:55:27;23.20;99.90
43183;DHT22;28802;38.578;-0.066;2023-04-21T13:57:53;23.30;99.90
43183;DHT22;28802;38.578;-0.066;2023-04-21T14:00:19;23.40;99.90
43183;DHT22;28802;38.578;-0.066;2023-04-21T14:02:48;23.50;99.90
43183;DHT22;28802;38.578;-0.066;2023-04-21T14:05:14;23.60;99.90
43183;DHT22;28802;38.578;-0.066;2023-04-21T14:07:41;23.50;99.90
43183;DHT22;28802;38.578;-0.066;2023-04-21T14:10:08;23.40;99.90
43183;DHT22;28802;38.578;-0.066;2023-04-21T14:12:37;23.40;99.90
43183;DHT22;28802;38.578;-0.066;2023-04-21T14:15:05;23.50;99.90
43183;DHT22;28802;38.578;-0.066;2023-04-21T14:17:31;23.40;99.90
43183;DHT22;28802;38.578;-0.066;2023-04-21T14:19:57;23.10;99.90
43183;DHT22;28802;38.578;-0.066;2023-04-21T14:22:23;23.00;99.90
43183;DHT22;28802;38.578;-0.066;2023-04-21T14:24:49;23.00;99.90
43183;DHT22;28802;38.578;-0.066;2023-04-21T14:27:15;23.10;99.90
43183;DHT22;28802;38.578;-0.066;2023-04-21T14:29:41;23.10;99.90
43183;DHT22;28802;38.578;-0.066;2023-04-21T14:32:07;23.10;99.90
43183;DHT22;28802;38.578;-0.066;2023-04-21T14:34:33;23.10;99.90
43183;DHT22;28802;38.578;-0.066;2023-04-21T14:36:59;23.10;99.90
43183;DHT22;28802;38.578;-0.066;2023-04-21T14:39:29;23.10;99.90
43183;DHT22;28802;38.578;-0.066;2023-04-21T14:41:57;23.10;99.90
43183;DHT22;28802;38.578;-0.066;2023-04-21T14:44:23;22.90;99.90
43183;DHT22;28802;38.578;-0.066;2023-04-21T14:46:49;22.90;99.90
43183;DHT22;28802;38.578;-0.066;2023-04-21T14:49:15;23.00;99.90
43183;DHT22;28802;38.578;-0.066;2023-04-21T14:51:41;23.00;99.90
43183;DHT22;28802;38.578;-0.066;2023-04-21T14:54:10;23.00;99.90
43183;DHT22;28802;38.578;-0.066;2023-04-21T14:56:36;22.70;99.90
43183;DHT22;28802;38.578;-0.066;2023-04-21T14:59:05;22.60;99.90
43183;DHT22;28802;38.578;-0.066;2023-04-21T15:01:31;22.50;99.90
43183;DHT22;28802;38.578;-0.066;2023-04-21T15:03:58;22.70;99.90
43183;DHT22;28802;38.578;-0.066;2023-04-21T15:06:24;22.80;99.90
43183;DHT22;28802;38.578;-0.066;2023-04-21T15:08:53;22.90;99.90
43183;DHT22;28802;38.578;-0.066;2023-04-21T15:11:19;22.70;99.90
43183;DHT22;28802;38.578;-0.066;2023-04-21T15:13:45;22.70;99.90
43183;DHT22;28802;38.578;-0.066;2023-04-21T15:16:11;22.70;99.90
43183;DHT22;28802;38.578;-0.066;2023-04-21T15:18:37;22.80;99.90
43183;DHT22;28802;38.578;-0.066;2023-04-21T15:21:03;22.80;99.90
43183;DHT22;28802;38.578;-0.066;2023-04-21T15:23:29;22.50;99.90